首页
METAR-TAF:

METAR-TAF

机场 :

弗洛雷讷, 比利时

纬度: 50-14N, 经度: 004-39E, 海拔: 279米

当前天气观测

该预报发布于19分钟前的18:55 UTC
风速10节,风向
温度 5°C
湿度 75%
气压 1027 hPa
能见度10公里或以上

METAR: EBFS 211855Z AUTO 18010KT 9999 BKN210/// 05/01 Q1027 BLU

时间: 20:14 (19:14 UTC)

预报

该预报发布于3小时和33分钟前的15:41 UTC
预报有效从21日的 19点(UTC)到 22日的 07点(UTC)
风速14节,风向西南,有时为25节阵风
能见度10公里或以上
少量云层高于2500英尺
多云层高于4000英尺
多云层高于10000英尺
成为
从 22日的 03点(UTC)到 22日的 05点(UTC)
散云层高于1500英尺
短暂存在
从 22日的 06点(UTC)到 22日的 07点(UTC)
散云层高于1200英尺

TAF: EBFS 211541Z 2119/2207 22014G25KT 9999 FEW025 BKN040 BKN100 BECMG 2203/2205 SCT015 TEMPO 2206/2207 SCT012

超过4000个机场的气象观测和天气预报(METAR&TAF报告)。

可查询的气象台以黄色和红色小点在地图上表示。

将鼠标移到小点上方,可查看气象台名称。

然后点击查看天气观测和预报。

如需切换地图:点击带黑十字的绿色按钮放大地图;点击带横线的绿色按钮缩小地图;或者点击绿色箭头查看邻近地区的地图。


METAR-TAF: